sensor_id;sensor_type;location;lat;lon;timestamp;pressure;altitude;pressure_sealevel;temperature
23208;BMP180;11773;52.570;13.052;2022-10-16T00:01:53;100869.00;;;20.80
23208;BMP180;11773;52.570;13.052;2022-10-16T00:04:23;100848.00;;;20.80
23208;BMP180;11773;52.570;13.052;2022-10-16T00:06:52;100850.00;;;20.80
23208;BMP180;11773;52.570;13.052;2022-10-16T00:09:22;100844.00;;;20.80
23208;BMP180;11773;52.570;13.052;2022-10-16T00:11:51;100853.00;;;20.80
23208;BMP180;11773;52.570;13.052;2022-10-16T00:14:21;100856.00;;;20.80
23208;BMP180;11773;52.570;13.052;2022-10-16T00:16:51;100866.00;;;20.80
23208;BMP180;11773;52.570;13.052;2022-10-16T00:19:20;100871.00;;;20.80
23208;BMP180;11773;52.570;13.052;2022-10-16T00:21:50;100868.00;;;20.90
23208;BMP180;11773;52.570;13.052;2022-10-16T00:24:19;100869.00;;;20.90
23208;BMP180;11773;52.570;13.052;2022-10-16T00:26:50;100874.00;;;20.80
23208;BMP180;11773;52.570;13.052;2022-10-16T00:29:19;100878.00;;;20.90
23208;BMP180;11773;52.570;13.052;2022-10-16T00:31:49;100875.00;;;20.80
23208;BMP180;11773;52.570;13.052;2022-10-16T00:34:18;100880.00;;;20.90
23208;BMP180;11773;52.570;13.052;2022-10-16T00:36:48;100884.00;;;20.90
23208;BMP180;11773;52.570;13.052;2022-10-16T00:39:17;100879.00;;;20.90
23208;BMP180;11773;52.570;13.052;2022-10-16T00:41:47;100868.00;;;20.80
23208;BMP180;11773;52.570;13.052;2022-10-16T00:44:56;100888.00;;;20.80
23208;BMP180;11773;52.570;13.052;2022-10-16T00:47:29;100871.00;;;20.80
23208;BMP180;11773;52.570;13.052;2022-10-16T00:50:11;100895.00;;;20.80
23208;BMP180;11773;52.570;13.052;2022-10-16T00:52:43;100889.00;;;20.80
23208;BMP180;11773;52.570;13.052;2022-10-16T00:55:13;100888.00;;;20.80
23208;BMP180;11773;52.570;13.052;2022-10-16T00:57:45;100889.00;;;20.80
23208;BMP180;11773;52.570;13.052;2022-10-16T01:00:19;100900.00;;;20.80
23208;BMP180;11773;52.570;13.052;2022-10-16T01:03:01;100908.00;;;20.80
23208;BMP180;11773;52.570;13.052;2022-10-16T01:05:45;100890.00;;;20.80
23208;BMP180;11773;52.570;13.052;2022-10-16T01:08:30;100898.00;;;20.80
23208;BMP180;11773;52.570;13.052;2022-10-16T01:11:16;100903.00;;;20.80
23208;BMP180;11773;52.570;13.052;2022-10-16T01:13:45;100898.00;;;20.80
23208;BMP180;11773;52.570;13.052;2022-10-16T01:16:43;100895.00;;;20.80
23208;BMP180;11773;52.570;13.052;2022-10-16T01:19:26;100892.00;;;20.80
23208;BMP180;11773;52.570;13.052;2022-10-16T01:21:55;100893.00;;;20.80
23208;BMP180;11773;52.570;13.052;2022-10-16T01:24:43;100892.00;;;20.80
23208;BMP180;11773;52.570;13.052;2022-10-16T01:27:30;100905.00;;;20.80
23208;BMP180;11773;52.570;13.052;2022-10-16T01:30:06;100914.00;;;20.80
23208;BMP180;11773;52.570;13.052;2022-10-16T01:33:00;100897.00;;;20.80
23208;BMP180;11773;52.570;13.052;2022-10-16T01:35:33;100912.00;;;20.80
23208;BMP180;11773;52.570;13.052;2022-10-16T01:38:20;100913.00;;;20.80
23208;BMP180;11773;52.570;13.052;2022-10-16T01:40:50;100912.00;;;20.80
23208;BMP180;11773;52.570;13.052;2022-10-16T01:43:35;100923.00;;;20.80
23208;BMP180;11773;52.570;13.052;2022-10-16T01:46:02;100908.00;;;20.80
23208;BMP180;11773;52.570;13.052;2022-10-16T01:48:33;100928.00;;;20.80
23208;BMP180;11773;52.570;13.052;2022-10-16T01:51:13;100915.00;;;20.80
23208;BMP180;11773;52.570;13.052;2022-10-16T01:53:53;100920.00;;;20.80
23208;BMP180;11773;52.570;13.052;2022-10-16T01:56:19;100926.00;;;20.80
23208;BMP180;11773;52.570;13.052;2022-10-16T01:59:02;100931.00;;;20.80
23208;BMP180;11773;52.570;13.052;2022-10-16T02:01:30;100941.00;;;20.80
23208;BMP180;11773;52.570;13.052;2022-10-16T02:04:07;100944.00;;;20.80
23208;BMP180;11773;52.570;13.052;2022-10-16T02:06:35;100940.00;;;20.80
23208;BMP180;11773;52.570;13.052;2022-10-16T02:09:04;100926.00;;;20.80
23208;BMP180;11773;52.570;13.052;2022-10-16T02:11:34;100958.00;;;20.80
23208;BMP180;11773;52.570;13.052;2022-10-16T02:14:06;100956.00;;;20.80
23208;BMP180;11773;52.570;13.052;2022-10-16T02:16:40;100958.00;;;20.80
23208;BMP180;11773;52.570;13.052;2022-10-16T02:19:12;100947.00;;;20.80
23208;BMP180;11773;52.570;13.052;2022-10-16T02:21:54;100954.00;;;20.80
23208;BMP180;11773;52.570;13.052;2022-10-16T02:24:45;100962.00;;;20.80
23208;BMP180;11773;52.570;13.052;2022-10-16T02:27:46;100970.00;;;20.80
23208;BMP180;11773;52.570;13.052;2022-10-16T02:30:22;100967.00;;;20.80
23208;BMP180;11773;52.570;13.052;2022-10-16T02:32:53;100964.00;;;20.80
23208;BMP180;11773;52.570;13.052;2022-10-16T02:35:25;100968.00;;;20.80
23208;BMP180;11773;52.570;13.052;2022-10-16T02:37:57;100969.00;;;20.80
23208;BMP180;11773;52.570;13.052;2022-10-16T02:40:28;100955.00;;;20.80
23208;BMP180;11773;52.570;13.052;2022-10-16T02:42:57;100961.00;;;20.80
23208;BMP180;11773;52.570;13.052;2022-10-16T02:45:27;100971.00;;;20.80
23208;BMP180;11773;52.570;13.052;2022-10-16T02:47:57;100972.00;;;20.80
23208;BMP180;11773;52.570;13.052;2022-10-16T02:50:27;100976.00;;;20.80
23208;BMP180;11773;52.570;13.052;2022-10-16T02:52:56;100966.00;;;20.80
23208;BMP180;11773;52.570;13.052;2022-10-16T02:55:26;100967.00;;;20.80
23208;BMP180;11773;52.570;13.052;2022-10-16T02:57:56;100964.00;;;20.80
23208;BMP180;11773;52.570;13.052;2022-10-16T03:00:25;100984.00;;;20.80
23208;BMP180;11773;52.570;13.052;2022-10-16T03:02:55;100985.00;;;20.80
23208;BMP180;11773;52.570;13.052;2022-10-16T03:05:24;100979.00;;;20.80
23208;BMP180;11773;52.570;13.052;2022-10-16T03:07:54;100984.00;;;20.80
23208;BMP180;11773;52.570;13.052;2022-10-16T03:10:23;100974.00;;;20.80
23208;BMP180;11773;52.570;13.052;2022-10-16T03:12:53;100982.00;;;20.80
23208;BMP180;11773;52.570;13.052;2022-10-16T03:15:22;100988.00;;;20.80
23208;BMP180;11773;52.570;13.052;2022-10-16T03:17:52;100984.00;;;20.80
23208;BMP180;11773;52.570;13.052;2022-10-16T03:20:21;100984.00;;;20.70
23208;BMP180;11773;52.570;13.052;2022-10-16T03:22:51;100993.00;;;20.80
23208;BMP180;11773;52.570;13.052;2022-10-16T03:25:21;100973.00;;;20.80
23208;BMP180;11773;52.570;13.052;2022-10-16T03:27:50;100985.00;;;20.70
23208;BMP180;11773;52.570;13.052;2022-10-16T03:30:20;100993.00;;;20.70
23208;BMP180;11773;52.570;13.052;2022-10-16T03:32:50;100986.00;;;20.70
23208;BMP180;11773;52.570;13.052;2022-10-16T03:35:22;100994.00;;;20.70
23208;BMP180;11773;52.570;13.052;2022-10-16T03:37:52;101004.00;;;20.70
23208;BMP180;11773;52.570;13.052;2022-10-16T03:40:22;101000.00;;;20.70
23208;BMP180;11773;52.570;13.052;2022-10-16T03:42:51;101012.00;;;20.60
23208;BMP180;11773;52.570;13.052;2022-10-16T03:45:23;101017.00;;;20.60
23208;BMP180;11773;52.570;13.052;2022-10-16T03:47:52;101028.00;;;20.60
23208;BMP180;11773;52.570;13.052;2022-10-16T03:50:22;101035.00;;;20.60
23208;BMP180;11773;52.570;13.052;2022-10-16T03:52:51;101032.00;;;20.60
23208;BMP180;11773;52.570;13.052;2022-10-16T03:55:21;101041.00;;;20.60
23208;BMP180;11773;52.570;13.052;2022-10-16T03:57:50;101025.00;;;20.60
23208;BMP180;11773;52.570;13.052;2022-10-16T04:00:20;101025.00;;;20.60
23208;BMP180;11773;52.570;13.052;2022-10-16T04:02:49;101029.00;;;20.50
23208;BMP180;11773;52.570;13.052;2022-10-16T04:05:19;101041.00;;;20.50
23208;BMP180;11773;52.570;13.052;2022-10-16T04:07:48;101029.00;;;20.50
23208;BMP180;11773;52.570;13.052;2022-10-16T04:10:18;101034.00;;;20.50
23208;BMP180;11773;52.570;13.052;2022-10-16T04:12:47;101038.00;;;20.50
23208;BMP180;11773;52.570;13.052;2022-10-16T04:15:17;101044.00;;;20.50
23208;BMP180;11773;52.570;13.052;2022-10-16T04:17:46;101028.00;;;20.50
23208;BMP180;11773;52.570;13.052;2022-10-16T04:20:16;101018.00;;;20.50
23208;BMP180;11773;52.570;13.052;2022-10-16T04:22:46;101027.00;;;20.50
23208;BMP180;11773;52.570;13.052;2022-10-16T04:25:15;101022.00;;;20.40
23208;BMP180;11773;52.570;13.052;2022-10-16T04:27:45;101021.00;;;20.40
23208;BMP180;11773;52.570;13.052;2022-10-16T04:30:14;101009.00;;;20.40
23208;BMP180;11773;52.570;13.052;2022-10-16T04:32:47;101021.00;;;20.40
23208;BMP180;11773;52.570;13.052;2022-10-16T04:35:15;101026.00;;;20.40
23208;BMP180;11773;52.570;13.052;2022-10-16T04:37:45;101016.00;;;20.30
23208;BMP180;11773;52.570;13.052;2022-10-16T04:40:14;101008.00;;;20.30
23208;BMP180;11773;52.570;13.052;2022-10-16T04:42:44;101014.00;;;20.30
23208;BMP180;11773;52.570;13.052;2022-10-16T04:45:14;101016.00;;;20.30
23208;BMP180;11773;52.570;13.052;2022-10-16T04:47:44;101006.00;;;20.30
23208;BMP180;11773;52.570;13.052;2022-10-16T04:50:14;101013.00;;;20.20
23208;BMP180;11773;52.570;13.052;2022-10-16T04:52:43;100999.00;;;20.20
23208;BMP180;11773;52.570;13.052;2022-10-16T04:55:14;101003.00;;;20.20
23208;BMP180;11773;52.570;13.052;2022-10-16T04:57:43;101012.00;;;20.20
23208;BMP180;11773;52.570;13.052;2022-10-16T05:00:13;101023.00;;;20.20
23208;BMP180;11773;52.570;13.052;2022-10-16T05:02:43;101035.00;;;20.20
23208;BMP180;11773;52.570;13.052;2022-10-16T05:05:12;101024.00;;;20.20
23208;BMP180;11773;52.570;13.052;2022-10-16T05:07:42;101037.00;;;20.20
23208;BMP180;11773;52.570;13.052;2022-10-16T05:10:12;101055.00;;;20.10
23208;BMP180;11773;52.570;13.052;2022-10-16T05:12:41;101033.00;;;20.10
23208;BMP180;11773;52.570;13.052;2022-10-16T05:15:11;101036.00;;;20.10
23208;BMP180;11773;52.570;13.052;2022-10-16T05:17:40;101037.00;;;20.10
23208;BMP180;11773;52.570;13.052;2022-10-16T05:20:12;101035.00;;;20.00
23208;BMP180;11773;52.570;13.052;2022-10-16T05:22:41;101053.00;;;20.00
23208;BMP180;11773;52.570;13.052;2022-10-16T05:25:11;101045.00;;;20.00
23208;BMP180;11773;52.570;13.052;2022-10-16T05:27:40;101048.00;;;20.00
23208;BMP180;11773;52.570;13.052;2022-10-16T05:30:10;101054.00;;;20.00
23208;BMP180;11773;52.570;13.052;2022-10-16T05:32:40;101059.00;;;20.00
23208;BMP180;11773;52.570;13.052;2022-10-16T05:35:09;101061.00;;;19.90
23208;BMP180;11773;52.570;13.052;2022-10-16T05:37:40;101063.00;;;19.90
23208;BMP180;11773;52.570;13.052;2022-10-16T05:40:10;101051.00;;;19.90
23208;BMP180;11773;52.570;13.052;2022-10-16T05:42:41;101053.00;;;19.90
23208;BMP180;11773;52.570;13.052;2022-10-16T05:45:11;101059.00;;;19.90
23208;BMP180;11773;52.570;13.052;2022-10-16T05:47:41;101051.00;;;19.90
23208;BMP180;11773;52.570;13.052;2022-10-16T05:50:10;101065.00;;;19.90
23208;BMP180;11773;52.570;13.052;2022-10-16T05:52:40;101059.00;;;19.90
23208;BMP180;11773;52.570;13.052;2022-10-16T05:55:09;101063.00;;;19.80
23208;BMP180;11773;52.570;13.052;2022-10-16T05:57:39;101069.00;;;19.80
23208;BMP180;11773;52.570;13.052;2022-10-16T06:00:10;101076.00;;;19.80
23208;BMP180;11773;52.570;13.052;2022-10-16T06:02:39;101066.00;;;19.80
23208;BMP180;11773;52.570;13.052;2022-10-16T06:05:09;101082.00;;;19.90
23208;BMP180;11773;52.570;13.052;2022-10-16T06:07:38;101082.00;;;19.80
23208;BMP180;11773;52.570;13.052;2022-10-16T06:10:08;101072.00;;;19.80
23208;BMP180;11773;52.570;13.052;2022-10-16T06:12:38;101064.00;;;19.80
23208;BMP180;11773;52.570;13.052;2022-10-16T06:15:08;101079.00;;;19.80
23208;BMP180;11773;52.570;13.052;2022-10-16T06:17:37;101093.00;;;19.80
23208;BMP180;11773;52.570;13.052;2022-10-16T06:20:07;101086.00;;;19.80
23208;BMP180;11773;52.570;13.052;2022-10-16T06:22:38;101086.00;;;19.80
23208;BMP180;11773;52.570;13.052;2022-10-16T06:25:08;101104.00;;;19.80
23208;BMP180;11773;52.570;13.052;2022-10-16T06:27:42;101102.00;;;19.80
23208;BMP180;11773;52.570;13.052;2022-10-16T06:30:11;101113.00;;;19.90
23208;BMP180;11773;52.570;13.052;2022-10-16T06:32:41;101118.00;;;19.90
23208;BMP180;11773;52.570;13.052;2022-10-16T06:35:10;101111.00;;;19.90
23208;BMP180;11773;52.570;13.052;2022-10-16T06:37:40;101118.00;;;19.90
23208;BMP180;11773;52.570;13.052;2022-10-16T06:40:09;101128.00;;;19.90
23208;BMP180;11773;52.570;13.052;2022-10-16T06:42:39;101135.00;;;20.00
23208;BMP180;11773;52.570;13.052;2022-10-16T06:45:09;101132.00;;;20.00
23208;BMP180;11773;52.570;13.052;2022-10-16T06:47:38;101123.00;;;20.00
23208;BMP180;11773;52.570;13.052;2022-10-16T06:50:08;101118.00;;;20.00
23208;BMP180;11773;52.570;13.052;2022-10-16T06:52:38;101134.00;;;20.00
23208;BMP180;11773;52.570;13.052;2022-10-16T06:55:07;101153.00;;;20.10
23208;BMP180;11773;52.570;13.052;2022-10-16T06:57:37;101162.00;;;20.10
23208;BMP180;11773;52.570;13.052;2022-10-16T07:00:07;101146.00;;;20.10
23208;BMP180;11773;52.570;13.052;2022-10-16T07:02:37;101148.00;;;20.20
23208;BMP180;11773;52.570;13.052;2022-10-16T07:05:07;101160.00;;;20.20
23208;BMP180;11773;52.570;13.052;2022-10-16T07:07:36;101154.00;;;20.20
23208;BMP180;11773;52.570;13.052;2022-10-16T07:10:06;101160.00;;;20.30
23208;BMP180;11773;52.570;13.052;2022-10-16T07:12:35;101161.00;;;20.30
23208;BMP180;11773;52.570;13.052;2022-10-16T07:15:05;101156.00;;;20.30
23208;BMP180;11773;52.570;13.052;2022-10-16T07:17:35;101146.00;;;20.40
23208;BMP180;11773;52.570;13.052;2022-10-16T07:20:05;101147.00;;;20.40
23208;BMP180;11773;52.570;13.052;2022-10-16T07:22:34;101149.00;;;20.40
23208;BMP180;11773;52.570;13.052;2022-10-16T07:25:04;101154.00;;;20.40
23208;BMP180;11773;52.570;13.052;2022-10-16T07:27:34;101161.00;;;20.50
23208;BMP180;11773;52.570;13.052;2022-10-16T07:30:06;101175.00;;;20.50
23208;BMP180;11773;52.570;13.052;2022-10-16T07:32:36;101165.00;;;20.60
23208;BMP180;11773;52.570;13.052;2022-10-16T07:35:06;101163.00;;;20.60
23208;BMP180;11773;52.570;13.052;2022-10-16T07:37:36;101161.00;;;20.60
23208;BMP180;11773;52.570;13.052;2022-10-16T07:40:06;101155.00;;;20.70
23208;BMP180;11773;52.570;13.052;2022-10-16T07:42:36;101164.00;;;20.70
23208;BMP180;11773;52.570;13.052;2022-10-16T07:45:06;101155.00;;;20.70
23208;BMP180;11773;52.570;13.052;2022-10-16T07:47:36;101166.00;;;20.80
23208;BMP180;11773;52.570;13.052;2022-10-16T07:50:05;101175.00;;;20.80
23208;BMP180;11773;52.570;13.052;2022-10-16T07:52:35;101193.00;;;20.90
23208;BMP180;11773;52.570;13.052;2022-10-16T07:55:05;101200.00;;;20.90
23208;BMP180;11773;52.570;13.052;2022-10-16T07:57:34;101206.00;;;20.90
23208;BMP180;11773;52.570;13.052;2022-10-16T08:00:04;101215.00;;;21.00
23208;BMP180;11773;52.570;13.052;2022-10-16T08:02:34;101227.00;;;21.00
23208;BMP180;11773;52.570;13.052;2022-10-16T08:05:04;101222.00;;;21.00
23208;BMP180;11773;52.570;13.052;2022-10-16T08:07:34;101212.00;;;21.10
23208;BMP180;11773;52.570;13.052;2022-10-16T08:10:03;101196.00;;;21.10
23208;BMP180;11773;52.570;13.052;2022-10-16T08:12:33;101202.00;;;21.10
23208;BMP180;11773;52.570;13.052;2022-10-16T08:15:03;101198.00;;;21.20
23208;BMP180;11773;52.570;13.052;2022-10-16T08:17:32;101199.00;;;21.20
23208;BMP180;11773;52.570;13.052;2022-10-16T08:20:03;101200.00;;;21.20
23208;BMP180;11773;52.570;13.052;2022-10-16T08:22:33;101220.00;;;21.20
23208;BMP180;11773;52.570;13.052;2022-10-16T08:25:02;101213.00;;;21.20
23208;BMP180;11773;52.570;13.052;2022-10-16T08:27:33;101209.00;;;21.30
23208;BMP180;11773;52.570;13.052;2022-10-16T08:30:03;101208.00;;;21.30
23208;BMP180;11773;52.570;13.052;2022-10-16T08:32:33;101228.00;;;21.30
23208;BMP180;11773;52.570;13.052;2022-10-16T08:35:02;101217.00;;;21.30
23208;BMP180;11773;52.570;13.052;2022-10-16T08:37:33;101234.00;;;21.40
23208;BMP180;11773;52.570;13.052;2022-10-16T08:40:05;101218.00;;;21.40
23208;BMP180;11773;52.570;13.052;2022-10-16T08:42:42;101226.00;;;21.40
23208;BMP180;11773;52.570;13.052;2022-10-16T08:45:24;101239.00;;;21.50
23208;BMP180;11773;52.570;13.052;2022-10-16T08:48:28;101223.00;;;21.50
23208;BMP180;11773;52.570;13.052;2022-10-16T08:50:58;101224.00;;;21.50
23208;BMP180;11773;52.570;13.052;2022-10-16T08:53:44;101241.00;;;21.50
23208;BMP180;11773;52.570;13.052;2022-10-16T08:56:14;101233.00;;;21.60
23208;BMP180;11773;52.570;13.052;2022-10-16T08:58:47;101234.00;;;21.60
23208;BMP180;11773;52.570;13.052;2022-10-16T09:01:21;101237.00;;;21.70
23208;BMP180;11773;52.570;13.052;2022-10-16T09:07:11;101250.00;;;21.80
23208;BMP180;11773;52.570;13.052;2022-10-16T09:09:55;101248.00;;;21.80
23208;BMP180;11773;52.570;13.052;2022-10-16T09:12:24;101261.00;;;21.90
23208;BMP180;11773;52.570;13.052;2022-10-16T09:18:12;101249.00;;;22.00
23208;BMP180;11773;52.570;13.052;2022-10-16T09:20:49;101256.00;;;22.10
23208;BMP180;11773;52.570;13.052;2022-10-16T09:23:26;101271.00;;;22.10
23208;BMP180;11773;52.570;13.052;2022-10-16T09:25:58;101270.00;;;22.20
23208;BMP180;11773;52.570;13.052;2022-10-16T09:28:28;101255.00;;;22.20
23208;BMP180;11773;52.570;13.052;2022-10-16T09:30:58;101250.00;;;22.30
23208;BMP180;11773;52.570;13.052;2022-10-16T09:33:36;101266.00;;;22.30
23208;BMP180;11773;52.570;13.052;2022-10-16T09:36:08;101274.00;;;22.30
23208;BMP180;11773;52.570;13.052;2022-10-16T09:38:39;101293.00;;;22.40
23208;BMP180;11773;52.570;13.052;2022-10-16T09:41:21;101284.00;;;22.40
23208;BMP180;11773;52.570;13.052;2022-10-16T09:43:57;101273.00;;;22.50
23208;BMP180;11773;52.570;13.052;2022-10-16T09:46:34;101288.00;;;22.50
23208;BMP180;11773;52.570;13.052;2022-10-16T09:49:24;101288.00;;;22.60
23208;BMP180;11773;52.570;13.052;2022-10-16T09:51:50;101286.00;;;22.60
23208;BMP180;11773;52.570;13.052;2022-10-16T09:54:22;101294.00;;;22.60
23208;BMP180;11773;52.570;13.052;2022-10-16T09:56:51;101306.00;;;22.70
23208;BMP180;11773;52.570;13.052;2022-10-16T09:59:23;101286.00;;;22.70
23208;BMP180;11773;52.570;13.052;2022-10-16T10:01:55;101283.00;;;22.80
23208;BMP180;11773;52.570;13.052;2022-10-16T10:04:36;101292.00;;;22.80
23208;BMP180;11773;52.570;13.052;2022-10-16T10:06:59;101312.00;;;22.90
23208;BMP180;11773;52.570;13.052;2022-10-16T10:09:37;101310.00;;;22.90
23208;BMP180;11773;52.570;13.052;2022-10-16T10:12:20;101301.00;;;23.00
23208;BMP180;11773;52.570;13.052;2022-10-16T10:14:58;101297.00;;;23.00
23208;BMP180;11773;52.570;13.052;2022-10-16T10:17:30;101301.00;;;23.00
23208;BMP180;11773;52.570;13.052;2022-10-16T10:22:49;101317.00;;;23.10
23208;BMP180;11773;52.570;13.052;2022-10-16T10:25:32;101325.00;;;23.10
23208;BMP180;11773;52.570;13.052;2022-10-16T10:28:39;101333.00;;;23.20
23208;BMP180;11773;52.570;13.052;2022-10-16T10:31:16;101339.00;;;23.20
23208;BMP180;11773;52.570;13.052;2022-10-16T10:36:38;101320.00;;;23.20
23208;BMP180;11773;52.570;13.052;2022-10-16T10:39:50;101311.00;;;23.30
23208;BMP180;11773;52.570;13.052;2022-10-16T10:42:57;101316.00;;;23.30
23208;BMP180;11773;52.570;13.052;2022-10-16T10:45:21;101324.00;;;23.40
23208;BMP180;11773;52.570;13.052;2022-10-16T10:47:58;101322.00;;;23.40
23208;BMP180;11773;52.570;13.052;2022-10-16T10:51:09;101326.00;;;23.50
23208;BMP180;11773;52.570;13.052;2022-10-16T10:53:56;101324.00;;;23.40
23208;BMP180;11773;52.570;13.052;2022-10-16T10:56:50;101329.00;;;23.50
23208;BMP180;11773;52.570;13.052;2022-10-16T11:02:29;101339.00;;;23.50
23208;BMP180;11773;52.570;13.052;2022-10-16T11:08:15;101335.00;;;23.60
23208;BMP180;11773;52.570;13.052;2022-10-16T11:13:55;101331.00;;;23.70
23208;BMP180;11773;52.570;13.052;2022-10-16T11:16:37;101330.00;;;23.60
23208;BMP180;11773;52.570;13.052;2022-10-16T11:22:39;101327.00;;;23.70
23208;BMP180;11773;52.570;13.052;2022-10-16T11:31:42;101328.00;;;23.70
23208;BMP180;11773;52.570;13.052;2022-10-16T11:34:09;101325.00;;;23.70
23208;BMP180;11773;52.570;13.052;2022-10-16T11:36:27;101320.00;;;23.80
23208;BMP180;11773;52.570;13.052;2022-10-16T11:41:50;101340.00;;;23.90
23208;BMP180;11773;52.570;13.052;2022-10-16T11:44:49;101335.00;;;23.90
23208;BMP180;11773;52.570;13.052;2022-10-16T11:50:06;101342.00;;;23.90
23208;BMP180;11773;52.570;13.052;2022-10-16T11:53:01;101335.00;;;24.00
23208;BMP180;11773;52.570;13.052;2022-10-16T11:55:40;101344.00;;;24.00
23208;BMP180;11773;52.570;13.052;2022-10-16T11:58:25;101358.00;;;24.00
23208;BMP180;11773;52.570;13.052;2022-10-16T12:01:00;101358.00;;;24.00
23208;BMP180;11773;52.570;13.052;2022-10-16T12:06:52;101373.00;;;24.00
23208;BMP180;11773;52.570;13.052;2022-10-16T12:09:36;101367.00;;;24.00
23208;BMP180;11773;52.570;13.052;2022-10-16T12:12:23;101360.00;;;24.00
23208;BMP180;11773;52.570;13.052;2022-10-16T12:14:40;101373.00;;;24.10
23208;BMP180;11773;52.570;13.052;2022-10-16T12:17:37;101356.00;;;24.10
23208;BMP180;11773;52.570;13.052;2022-10-16T12:22:59;101366.00;;;24.10
23208;BMP180;11773;52.570;13.052;2022-10-16T12:25:36;101381.00;;;24.20
23208;BMP180;11773;52.570;13.052;2022-10-16T12:28:20;101376.00;;;24.10
23208;BMP180;11773;52.570;13.052;2022-10-16T12:31:06;101375.00;;;24.20
23208;BMP180;11773;52.570;13.052;2022-10-16T12:33:52;101387.00;;;24.20
23208;BMP180;11773;52.570;13.052;2022-10-16T12:36:26;101391.00;;;24.20
23208;BMP180;11773;52.570;13.052;2022-10-16T12:38:52;101389.00;;;24.20
23208;BMP180;11773;52.570;13.052;2022-10-16T12:41:32;101372.00;;;24.20
23208;BMP180;11773;52.570;13.052;2022-10-16T12:44:03;101378.00;;;24.20
23208;BMP180;11773;52.570;13.052;2022-10-16T12:46:39;101383.00;;;24.20
23208;BMP180;11773;52.570;13.052;2022-10-16T12:52:00;101386.00;;;24.20
23208;BMP180;11773;52.570;13.052;2022-10-16T12:54:38;101393.00;;;24.30
23208;BMP180;11773;52.570;13.052;2022-10-16T12:57:53;101400.00;;;24.30
23208;BMP180;11773;52.570;13.052;2022-10-16T13:00:32;101406.00;;;24.20
23208;BMP180;11773;52.570;13.052;2022-10-16T13:06:38;101390.00;;;24.20
23208;BMP180;11773;52.570;13.052;2022-10-16T13:09:38;101397.00;;;24.20
23208;BMP180;11773;52.570;13.052;2022-10-16T13:18:28;101410.00;;;24.20
23208;BMP180;11773;52.570;13.052;2022-10-16T13:30:27;101438.00;;;24.10
23208;BMP180;11773;52.570;13.052;2022-10-16T13:33:07;101428.00;;;24.10
23208;BMP180;11773;52.570;13.052;2022-10-16T13:35:45;101437.00;;;24.20
23208;BMP180;11773;52.570;13.052;2022-10-16T13:38:15;101434.00;;;24.20
23208;BMP180;11773;52.570;13.052;2022-10-16T13:40:59;101445.00;;;24.20
23208;BMP180;11773;52.570;13.052;2022-10-16T13:43:43;101453.00;;;24.20
23208;BMP180;11773;52.570;13.052;2022-10-16T13:46:19;101433.00;;;24.30
23208;BMP180;11773;52.570;13.052;2022-10-16T13:49:00;101437.00;;;24.30
23208;BMP180;11773;52.570;13.052;2022-10-16T13:51:32;101436.00;;;24.30
23208;BMP180;11773;52.570;13.052;2022-10-16T13:54:01;101440.00;;;24.30
23208;BMP180;11773;52.570;13.052;2022-10-16T13:56:33;101450.00;;;24.30
23208;BMP180;11773;52.570;13.052;2022-10-16T13:59:06;101437.00;;;24.30
23208;BMP180;11773;52.570;13.052;2022-10-16T14:01:42;101438.00;;;24.30
23208;BMP180;11773;52.570;13.052;2022-10-16T14:04:15;101445.00;;;24.40
23208;BMP180;11773;52.570;13.052;2022-10-16T14:06:49;101445.00;;;24.40
23208;BMP180;11773;52.570;13.052;2022-10-16T14:09:28;101442.00;;;24.30
23208;BMP180;11773;52.570;13.052;2022-10-16T14:12:08;101454.00;;;24.30
23208;BMP180;11773;52.570;13.052;2022-10-16T14:14:58;101449.00;;;24.30
23208;BMP180;11773;52.570;13.052;2022-10-16T14:17:35;101451.00;;;24.30
23208;BMP180;11773;52.570;13.052;2022-10-16T14:20:06;101443.00;;;24.30
23208;BMP180;11773;52.570;13.052;2022-10-16T14:22:40;101461.00;;;24.30
23208;BMP180;11773;52.570;13.052;2022-10-16T14:28:18;101458.00;;;24.30
23208;BMP180;11773;52.570;13.052;2022-10-16T14:30:58;101455.00;;;24.30
23208;BMP180;11773;52.570;13.052;2022-10-16T14:33:34;101455.00;;;24.30
23208;BMP180;11773;52.570;13.052;2022-10-16T14:38:43;101463.00;;;24.30
23208;BMP180;11773;52.570;13.052;2022-10-16T14:41:13;101464.00;;;24.20
23208;BMP180;11773;52.570;13.052;2022-10-16T14:43:44;101484.00;;;24.20
23208;BMP180;11773;52.570;13.052;2022-10-16T14:46:20;101487.00;;;24.20
23208;BMP180;11773;52.570;13.052;2022-10-16T14:49:03;101490.00;;;24.20
23208;BMP180;11773;52.570;13.052;2022-10-16T14:51:32;101485.00;;;24.20
23208;BMP180;11773;52.570;13.052;2022-10-16T14:54:01;101485.00;;;24.20
23208;BMP180;11773;52.570;13.052;2022-10-16T14:56:43;101475.00;;;24.20
23208;BMP180;11773;52.570;13.052;2022-10-16T14:59:44;101480.00;;;24.20
23208;BMP180;11773;52.570;13.052;2022-10-16T15:01:48;101488.00;;;24.10
23208;BMP180;11773;52.570;13.052;2022-10-16T15:04:17;101489.00;;;24.20
23208;BMP180;11773;52.570;13.052;2022-10-16T15:06:47;101483.00;;;24.10
23208;BMP180;11773;52.570;13.052;2022-10-16T15:09:16;101491.00;;;24.10
23208;BMP180;11773;52.570;13.052;2022-10-16T15:11:46;101495.00;;;24.10
23208;BMP180;11773;52.570;13.052;2022-10-16T15:14:15;101486.00;;;24.10
23208;BMP180;11773;52.570;13.052;2022-10-16T15:16:45;101493.00;;;24.10
23208;BMP180;11773;52.570;13.052;2022-10-16T15:19:15;101499.00;;;24.10
23208;BMP180;11773;52.570;13.052;2022-10-16T15:21:44;101502.00;;;24.00
23208;BMP180;11773;52.570;13.052;2022-10-16T15:24:15;101514.00;;;24.00
23208;BMP180;11773;52.570;13.052;2022-10-16T15:26:46;101506.00;;;24.00
23208;BMP180;11773;52.570;13.052;2022-10-16T15:29:16;101520.00;;;24.00
23208;BMP180;11773;52.570;13.052;2022-10-16T15:31:45;101517.00;;;24.00